Dakin Peak, Santa Catalina Island Weather observations

Data are for 10 minute period ending at time listed.
 Day   Time   Solar   Ave.   Ave.  Ave.  Vector    Max.   Stn.    Total
  of    of     Rad.   Air    Rel.  Wind   Wind     Wind   Baro.  Precip.
Year   Day            Temp.  Hum.  Speed  Dir.     Gust   Pres.         
2016   (PST)   W/m2    F      %     mph   deg.      mph    mb.     in.  
------------------------------------------------------------------------
 176    0:00    0.0    66   60.7     6    136.7     7.8    999.0   0.00  
 176    0:10    0.0    66   60.8     5    117.0     7.2    999.0   0.00  
 176    0:20    0.0    63   69.2     3    142.3     5.4    999.0   0.00  
 176    0:30    0.0    66   57.4     3    170.9     4.8    999.0   0.00  
 176    0:40    0.0    65   59.3     2    207.6     4.2    999.0   0.00  
 176    0:50    0.0    64   66.7     2    261.7     4.8    999.0   0.00  
 176    1:00    0.0    60   77.1     4    255.3     5.4    999.0   0.00  
 176    1:10    0.0    60   82.3     4    264.1     6.0    999.0   0.00  
 176    1:20    0.0    61   75.9     2    267.3     5.4    999.0   0.00  
 176    1:30    0.0    64   61.5     1    108.0     5.4    999.0   0.00  
 176    1:40    0.0    63   68.0     2     41.8     4.2    999.0   0.00  
 176    1:50    0.0    62   67.7     2     34.8     4.8    999.0   0.00  
 176    2:00    0.0    63   67.9     2     18.7     4.2    999.0   0.00  
 176    2:10    0.0    64   63.5     3     42.8     4.8    999.0   0.00  
 176    2:20    0.0    62   71.8     4     91.7     5.4    999.0   0.00  
 176    2:30    0.0    56   93.8     4    128.8     6.0    999.0   0.00  
 176    2:40    0.0    56   94.3     4    129.1     5.4    999.0   0.00  
 176    2:50    0.0    56   96.2     5    140.7     7.2    999.0   0.00  
 176    3:00    0.0    56   96.8     6    141.7     7.8    999.0   0.00  
 176    3:10    0.0    56   96.9     3    128.2     4.8    999.0   0.00  
 176    3:20    0.0    57   96.1     3    144.5     4.8    999.0   0.00  
 176    3:30    0.0    58   87.9     3    126.4     3.6    999.0   0.00  
 176    3:40    0.0    56   95.4     4    154.9     6.0    999.0   0.00  
 176    3:50    0.0    56   96.8     3    126.2     4.8    999.0   0.00  
 176    4:00    0.0    56   97.2     3     21.5     4.8    999.0   0.00  
 176    4:10    0.0    56   97.4     4     81.5     6.0    999.0   0.00  
 176    4:20    0.0    56   97.6     4     20.4     5.4    999.0   0.00  
 176    4:30    0.0    56   97.7     5     55.8     6.6    999.0   0.00  
 176    4:40    0.0    56   97.8     4     68.5     6.0    999.0   0.00  
 176    4:50    2.0    56   97.9     4     87.0     8.4    999.0   0.00  
 176    5:00    5.0    56   97.9     5    104.1     6.6    999.0   0.00  
 176    5:10   11.0    56   98.0     6    109.6     9.0    999.0   0.00  
 176    5:20   23.0    56   98.1     6    129.9     7.8    999.0   0.00  
 176    5:30   43.0    56   98.1     4    151.4     6.0    999.0   0.00  
 176    5:40   79.0    56   98.1     5    214.8     7.8    999.0   0.00  
 176    5:50  104.0    57   97.9     2    142.2     5.4    999.0   0.00  
 176    6:00  137.0    58   97.5     1    132.1     3.6    999.0   0.00  
 176    6:10  146.0    59   96.5     2    123.0     5.4    999.0   0.00  
 176    6:20  171.0    58   97.0     3    210.4     4.8    999.0   0.00  
 176    6:30  209.0    59   96.8     2    270.9     5.4    999.0   0.00  
 176    6:40  221.0    60   95.9     2    171.3     5.4    999.0   0.00  
 176    6:50  270.0    60   95.4     2    202.9     4.8    999.0   0.00  
 176    7:00  299.0    62   91.0     4    126.8     7.2    999.0   0.00  
 176    7:10  318.0    64   83.3     4    114.1     6.0    999.0   0.00  
 176    7:20  355.0    65   80.4     4     94.3     7.8    999.0   0.00  
 176    7:30  382.0    64   81.7     5    109.1     8.4    999.0   0.00  
 176    7:40  415.0    67   76.2     4     98.1     6.0    999.0   0.00  
 176    7:50  436.0    65   81.2     4    107.6     6.0    999.0   0.00  
 176    8:00  460.0    67   76.7     4    101.4     7.2    999.0   0.00  
 176    8:10  487.0    65   80.1     4     97.7     7.8    999.0   0.00  
 176    8:20  506.0    67   76.8     5     98.7     7.8    999.0   0.00  
 176    8:30  530.0    66   78.0     4     91.6     7.2    999.0   0.00  
 176    8:40  552.0    69   72.8     4     95.8     6.0    999.0   0.00  
 176    8:50  572.0    68   74.5     3     95.3     6.0    999.0   0.00  
 176    9:00  593.0    70   70.4     4    105.1     5.4    999.0   0.00  
 176    9:10  613.0    70   71.1     5    103.0     7.8    999.0   0.00  
 176    9:20  631.0    70   70.8     5    102.8     8.4    999.0   0.00  
 176    9:30  649.0    67   75.0     6     97.4     9.0    999.0   0.00  
 176    9:40  667.0    67   76.8     5    103.1    10.2    999.0   0.00  
 176    9:50  685.0    67   77.0     5    110.7     9.0    999.0   0.00  
 176   10:00  703.0    67   75.5     6    101.1    10.8    999.0   0.00  
 176   10:10  719.0    67   76.0     6    100.2     9.0    999.0   0.00  
 176   10:20  726.0    66   77.8     6    108.3    10.2    999.0   0.00  
 176   10:30  738.0    67   75.8     7    109.3     9.6    999.0   0.00  
 176   10:40  749.0    68   74.9     6    109.1     9.6    999.0   0.00  
 176   10:50  758.0    66   77.8     7    108.2    10.2    999.0   0.00  
 176   11:00  763.0    68   74.5     6    107.7     8.4    999.0   0.00  
 176   11:10  767.0    68   74.8     6    104.3    10.2    999.0   0.00  
 176   11:20  773.0    69   71.8     3     90.4     6.0    999.0   0.00  
 176   11:30  779.0    70   69.2     3    111.2     7.2    999.0   0.00  
 176   11:40  782.0    69   71.8     5     95.6     7.8    999.0   0.00  
 176   11:50  783.0    67   75.3     4     90.6     7.2    999.0   0.00  
 176   12:00  783.0    68   73.4     6     98.4     9.6    999.0   0.00  
 176   12:10  787.0    66   78.4     6    100.4    10.2    999.0   0.00  
 176   12:20  785.0    66   77.1     5    108.8    10.2    999.0   0.00  
 176   12:30  781.0    68   74.6     5     99.3     7.8    999.0   0.00  
 176   12:40  776.0    66   77.4     6    100.2     9.0    999.0   0.00  
 176   12:50  769.0    67   77.2     6    104.5     8.4    999.0   0.00  
 176   13:00  762.0    68   75.5     4    113.8     7.8    999.0   0.00  
 176   13:10  756.0    70   70.2     5    112.8     9.0    999.0   0.00  
 176   13:20  746.0    67   76.2     5    101.9     8.4    999.0   0.00  
 176   13:30  738.0    70   72.0     4     96.8     6.6    999.0   0.00  
 176   13:40  726.0    70   71.2     3     87.2     4.8    999.0   0.00  
 176   13:50  716.0    72   67.2     3    111.6     7.8    999.0   0.00  
 176   14:00  702.0    73   63.6     4    165.3     7.2    999.0   0.00  
 176   14:10  687.0    71   68.8     4     97.3     7.8    999.0   0.00  
 176   14:20  667.0    68   74.4     4     95.0     7.8    999.0   0.00  
 176   14:30  652.0    70   69.3     3    137.0     7.2    999.0   0.00  
 176   14:40  633.0    72   65.2     4    173.8     7.8    999.0   0.00  
 176   14:50  613.0    73   63.9     4    127.2     7.2    999.0   0.00  
 176   15:00  591.0    71   67.8     4    134.9     6.0    999.0   0.00  
 176   15:10  570.0    71   67.5     4    147.9     9.0    999.0   0.00  
 176   15:20  548.0    68   71.8     5    171.7     8.4    999.0   0.00  
 176   15:30  526.0    67   74.2     5    181.0     9.0    999.0   0.00  
 176   15:40  504.0    69   69.9     4    163.8     8.4    999.0   0.00  
 176   15:50  481.0    70   68.4     4    170.8     6.6    999.0   0.00  
 176   16:00  457.0    70   67.0     3    192.1     7.2    999.0   0.00  
 176   16:10  431.0    69   70.1     4    137.2     7.8    999.0   0.00  
 176   16:20  406.0    69   73.3     3    105.0     5.4    999.0   0.00  
 176   16:30  378.0    67   77.5     4    112.5     7.2    999.0   0.00  
 176   16:40  352.0    66   78.1     2    101.0     4.8    999.0   0.00  
 176   16:50  326.0    67   77.0     4    116.5     7.2    999.0   0.00  
 176   17:00  298.0    65   81.3     3     85.9     6.0    999.0   0.00  
 176   17:10  272.0    65   84.1     4    331.7     5.4    999.0   0.00  
 176   17:20  245.0    65   84.4     3    355.0     4.8    999.0   0.00  
 176   17:30  219.0    64   86.3     4    352.5     6.0    999.0   0.00  
 176   17:40  195.0    64   86.7     3    352.0     5.4    999.0   0.00  
 176   17:50  166.0    63   87.3     3    346.4     4.8    999.0   0.00  
 176   18:00  143.0    62   90.2     4    346.1     4.8    999.0   0.00  
 176   18:10  122.0    62   90.6     4    339.3     6.0    999.0   0.00  
 176   18:20   75.0    62   92.0     3    343.6     5.4    999.0   0.00  
 176   18:30   40.0    61   93.2     2     15.9     3.6    999.0   0.00  
 176   18:40   27.0    61   93.9     3    331.4     4.8    999.0   0.00  
 176   18:50   11.0    60   95.0     3      0.6     6.0    999.0   0.00  
 176   19:00    6.0    60   95.8     2     19.5     4.2    999.0   0.00  
 176   19:10    3.0    60   96.0     2    308.1     3.6    999.0   0.00  
 176   19:20    0.0    60   96.1     1    240.5     4.2    999.0   0.00  
 176   19:30    0.0    59   96.1     4    230.4     6.6    999.0   0.00  
 176   19:40    0.0    59   95.6     1    114.6     3.0    999.0   0.00  
 176   19:50    0.0    59   96.2     2     76.0     4.2    999.0   0.00  
 176   20:00    0.0    59   96.5     2     91.1     3.6    999.0   0.00  
 176   20:10    0.0    59   96.5     1     99.2     4.2    999.0   0.00  
 176   20:20    0.0    59   96.7     1    109.5     3.0    999.0   0.00  
 176   20:30    0.0    59   96.8     1    110.4     4.2    999.0   0.00  
 176   20:40    0.0    58   97.0     1    100.3     3.0    999.0   0.00  
 176   20:50    0.0    58   97.1     2     67.9     4.2    999.0   0.00  
 176   21:00    0.0    58   97.2     2     44.7     3.6    999.0   0.00  
 176   21:10    0.0    58   97.3     1    125.4     3.6    999.0   0.00  
 176   21:20    0.0    58   97.4     1    233.5     3.6    999.0   0.00  
 176   21:30    0.0    58   97.4     1    264.2     4.2    999.0   0.00  
 176   21:40    0.0    58   97.5     2    109.1     5.4    999.0   0.00  
 176   21:50    0.0    58   97.7     4    151.6     5.4    999.0   0.00  
 176   22:00    0.0    58   97.8     3    155.6     6.0    999.0   0.00  
 176   22:10    0.0    58   97.8     2    161.8     4.2    999.0   0.00  
 176   22:20    0.0    57   97.9     1    168.0     3.0    999.0   0.00  
 176   22:30    0.0    57   98.0     2    186.2     3.6    999.0   0.00  
 176   22:40    0.0    57   98.0     0    217.5     2.4    999.0   0.00  
 176   22:50    0.0    57   98.0     2    170.6     4.8    999.0   0.00  
 176   23:00    0.0    57   98.1     5    235.9     7.8    999.0   0.00  
 176   23:10    0.0    57   98.1     3     44.8     6.0    999.0   0.00  
 176   23:20    0.0    57   98.0     2    119.9     3.6    999.0   0.00  

Return to Dakin Peak graphs page.


Western Regional Climate Center,wrcc@dri.edu